sensor_id;sensor_type;location;lat;lon;timestamp;P1;durP1;ratioP1;P2;durP2;ratioP2
71456;SDS011;59263;48.160;11.752;2024-01-07T00:02:22;16.85;;;6.40;;
71456;SDS011;59263;48.160;11.752;2024-01-07T00:04:47;19.10;;;7.10;;
71456;SDS011;59263;48.160;11.752;2024-01-07T00:07:13;16.80;;;6.20;;
71456;SDS011;59263;48.160;11.752;2024-01-07T00:09:38;13.90;;;5.43;;
71456;SDS011;59263;48.160;11.752;2024-01-07T00:12:04;17.50;;;6.43;;
71456;SDS011;59263;48.160;11.752;2024-01-07T00:14:29;16.70;;;6.57;;
71456;SDS011;59263;48.160;11.752;2024-01-07T00:16:54;16.65;;;6.93;;
71456;SDS011;59263;48.160;11.752;2024-01-07T00:19:20;18.27;;;7.18;;
71456;SDS011;59263;48.160;11.752;2024-01-07T00:21:45;15.73;;;5.93;;
71456;SDS011;59263;48.160;11.752;2024-01-07T00:24:10;15.93;;;6.17;;
71456;SDS011;59263;48.160;11.752;2024-01-07T00:26:36;15.60;;;5.73;;
71456;SDS011;59263;48.160;11.752;2024-01-07T00:29:01;18.00;;;6.47;;
71456;SDS011;59263;48.160;11.752;2024-01-07T00:31:26;17.70;;;6.43;;
71456;SDS011;59263;48.160;11.752;2024-01-07T00:33:52;16.57;;;5.97;;
71456;SDS011;59263;48.160;11.752;2024-01-07T00:36:17;18.33;;;6.45;;
71456;SDS011;59263;48.160;11.752;2024-01-07T00:38:43;18.73;;;6.60;;
71456;SDS011;59263;48.160;11.752;2024-01-07T00:41:08;18.43;;;6.77;;
71456;SDS011;59263;48.160;11.752;2024-01-07T00:43:33;16.07;;;6.17;;
71456;SDS011;59263;48.160;11.752;2024-01-07T00:45:59;16.47;;;6.87;;
71456;SDS011;59263;48.160;11.752;2024-01-07T00:48:24;20.43;;;6.83;;
71456;SDS011;59263;48.160;11.752;2024-01-07T00:50:49;17.57;;;6.67;;
71456;SDS011;59263;48.160;11.752;2024-01-07T00:53:15;18.60;;;6.00;;
71456;SDS011;59263;48.160;11.752;2024-01-07T00:55:40;17.15;;;6.53;;
71456;SDS011;59263;48.160;11.752;2024-01-07T00:58:05;17.25;;;6.60;;
71456;SDS011;59263;48.160;11.752;2024-01-07T01:00:31;17.63;;;6.30;;
71456;SDS011;59263;48.160;11.752;2024-01-07T01:02:56;17.47;;;6.40;;
71456;SDS011;59263;48.160;11.752;2024-01-07T01:05:21;16.87;;;6.47;;
71456;SDS011;59263;48.160;11.752;2024-01-07T01:07:47;15.97;;;5.97;;
71456;SDS011;59263;48.160;11.752;2024-01-07T01:10:12;18.17;;;6.23;;
71456;SDS011;59263;48.160;11.752;2024-01-07T01:12:39;16.70;;;6.03;;
71456;SDS011;59263;48.160;11.752;2024-01-07T01:15:05;20.90;;;5.43;;
71456;SDS011;59263;48.160;11.752;2024-01-07T01:17:31;12.40;;;5.00;;
71456;SDS011;59263;48.160;11.752;2024-01-07T01:19:56;16.43;;;5.63;;
71456;SDS011;59263;48.160;11.752;2024-01-07T01:22:21;13.70;;;5.43;;
71456;SDS011;59263;48.160;11.752;2024-01-07T01:24:46;15.10;;;6.47;;
71456;SDS011;59263;48.160;11.752;2024-01-07T01:27:13;17.15;;;6.13;;
71456;SDS011;59263;48.160;11.752;2024-01-07T01:29:40;17.70;;;6.95;;
71456;SDS011;59263;48.160;11.752;2024-01-07T01:32:06;14.37;;;5.10;;
71456;SDS011;59263;48.160;11.752;2024-01-07T01:34:31;15.63;;;5.90;;
71456;SDS011;59263;48.160;11.752;2024-01-07T01:36:57;16.33;;;6.30;;
71456;SDS011;59263;48.160;11.752;2024-01-07T01:39:22;16.23;;;6.37;;
71456;SDS011;59263;48.160;11.752;2024-01-07T01:41:47;15.30;;;6.00;;
71456;SDS011;59263;48.160;11.752;2024-01-07T01:44:13;13.67;;;5.43;;
71456;SDS011;59263;48.160;11.752;2024-01-07T01:46:38;14.43;;;5.40;;
71456;SDS011;59263;48.160;11.752;2024-01-07T01:49:04;15.68;;;6.45;;
71456;SDS011;59263;48.160;11.752;2024-01-07T01:51:31;15.98;;;5.55;;
71456;SDS011;59263;48.160;11.752;2024-01-07T01:53:57;16.58;;;4.97;;
71456;SDS011;59263;48.160;11.752;2024-01-07T01:56:25;14.07;;;5.03;;
71456;SDS011;59263;48.160;11.752;2024-01-07T01:58:52;15.00;;;5.47;;
71456;SDS011;59263;48.160;11.752;2024-01-07T02:01:18;15.20;;;5.80;;
71456;SDS011;59263;48.160;11.752;2024-01-07T02:03:43;13.85;;;5.63;;
71456;SDS011;59263;48.160;11.752;2024-01-07T02:06:09;14.75;;;5.85;;
71456;SDS011;59263;48.160;11.752;2024-01-07T02:08:35;15.43;;;5.53;;
71456;SDS011;59263;48.160;11.752;2024-01-07T02:11:13;13.85;;;5.07;;
71456;SDS011;59263;48.160;11.752;2024-01-07T02:13:43;14.43;;;5.38;;
71456;SDS011;59263;48.160;11.752;2024-01-07T02:16:08;14.30;;;5.57;;
71456;SDS011;59263;48.160;11.752;2024-01-07T02:18:34;16.87;;;6.23;;
71456;SDS011;59263;48.160;11.752;2024-01-07T02:21:00;12.98;;;4.82;;
71456;SDS011;59263;48.160;11.752;2024-01-07T02:23:25;15.23;;;4.97;;
71456;SDS011;59263;48.160;11.752;2024-01-07T02:25:50;15.77;;;5.73;;
71456;SDS011;59263;48.160;11.752;2024-01-07T02:28:16;15.87;;;5.83;;
71456;SDS011;59263;48.160;11.752;2024-01-07T02:30:41;14.32;;;5.38;;
71456;SDS011;59263;48.160;11.752;2024-01-07T02:33:06;13.95;;;4.93;;
71456;SDS011;59263;48.160;11.752;2024-01-07T02:35:32;12.87;;;4.63;;
71456;SDS011;59263;48.160;11.752;2024-01-07T02:37:57;16.23;;;6.17;;
71456;SDS011;59263;48.160;11.752;2024-01-07T02:40:22;13.47;;;5.63;;
71456;SDS011;59263;48.160;11.752;2024-01-07T02:42:48;16.83;;;5.60;;
71456;SDS011;59263;48.160;11.752;2024-01-07T02:45:13;15.47;;;5.40;;
71456;SDS011;59263;48.160;11.752;2024-01-07T02:47:38;14.50;;;5.10;;
71456;SDS011;59263;48.160;11.752;2024-01-07T02:50:04;13.27;;;5.28;;
71456;SDS011;59263;48.160;11.752;2024-01-07T02:52:29;14.00;;;6.07;;
71456;SDS011;59263;48.160;11.752;2024-01-07T02:54:55;12.20;;;4.30;;
71456;SDS011;59263;48.160;11.752;2024-01-07T02:57:20;15.67;;;5.37;;
71456;SDS011;59263;48.160;11.752;2024-01-07T02:59:46;14.73;;;5.17;;
71456;SDS011;59263;48.160;11.752;2024-01-07T03:02:11;13.27;;;5.28;;
71456;SDS011;59263;48.160;11.752;2024-01-07T03:04:36;14.97;;;5.60;;
71456;SDS011;59263;48.160;11.752;2024-01-07T03:07:02;11.70;;;4.73;;
71456;SDS011;59263;48.160;11.752;2024-01-07T03:09:27;14.60;;;5.00;;
71456;SDS011;59263;48.160;11.752;2024-01-07T03:11:52;12.73;;;4.93;;
71456;SDS011;59263;48.160;11.752;2024-01-07T03:14:19;15.07;;;5.80;;
71456;SDS011;59263;48.160;11.752;2024-01-07T03:16:46;14.90;;;5.40;;
71456;SDS011;59263;48.160;11.752;2024-01-07T03:19:11;13.03;;;4.97;;
71456;SDS011;59263;48.160;11.752;2024-01-07T03:21:37;12.47;;;4.80;;
71456;SDS011;59263;48.160;11.752;2024-01-07T03:24:02;12.75;;;5.03;;
71456;SDS011;59263;48.160;11.752;2024-01-07T03:26:32;16.23;;;5.47;;
71456;SDS011;59263;48.160;11.752;2024-01-07T03:28:58;12.73;;;5.07;;
71456;SDS011;59263;48.160;11.752;2024-01-07T03:31:25;12.52;;;5.18;;
71456;SDS011;59263;48.160;11.752;2024-01-07T03:33:50;13.13;;;4.87;;
71456;SDS011;59263;48.160;11.752;2024-01-07T03:36:16;11.73;;;4.32;;
71456;SDS011;59263;48.160;11.752;2024-01-07T03:38:41;11.33;;;4.37;;
71456;SDS011;59263;48.160;11.752;2024-01-07T03:41:07;12.53;;;4.97;;
71456;SDS011;59263;48.160;11.752;2024-01-07T03:43:33;13.18;;;4.35;;
71456;SDS011;59263;48.160;11.752;2024-01-07T03:45:59;11.77;;;4.03;;
71456;SDS011;59263;48.160;11.752;2024-01-07T03:48:25;13.97;;;4.97;;
71456;SDS011;59263;48.160;11.752;2024-01-07T03:50:51;11.27;;;4.32;;
71456;SDS011;59263;48.160;11.752;2024-01-07T03:53:16;12.43;;;4.30;;
71456;SDS011;59263;48.160;11.752;2024-01-07T03:55:42;12.30;;;4.47;;
71456;SDS011;59263;48.160;11.752;2024-01-07T03:58:07;10.98;;;4.47;;
71456;SDS011;59263;48.160;11.752;2024-01-07T04:00:33;11.53;;;3.77;;
71456;SDS011;59263;48.160;11.752;2024-01-07T04:02:59;10.90;;;3.72;;
71456;SDS011;59263;48.160;11.752;2024-01-07T04:05:24;11.23;;;4.10;;
71456;SDS011;59263;48.160;11.752;2024-01-07T04:07:50;11.10;;;4.20;;
71456;SDS011;59263;48.160;11.752;2024-01-07T04:10:18;11.23;;;3.70;;
71456;SDS011;59263;48.160;11.752;2024-01-07T04:12:44;13.13;;;4.17;;
71456;SDS011;59263;48.160;11.752;2024-01-07T04:15:11;11.73;;;4.10;;
71456;SDS011;59263;48.160;11.752;2024-01-07T04:17:37;12.30;;;4.55;;
71456;SDS011;59263;48.160;11.752;2024-01-07T04:20:02;13.77;;;4.80;;
71456;SDS011;59263;48.160;11.752;2024-01-07T04:22:28;11.85;;;4.03;;
71456;SDS011;59263;48.160;11.752;2024-01-07T04:24:53;11.00;;;3.60;;
71456;SDS011;59263;48.160;11.752;2024-01-07T04:27:19;12.63;;;4.30;;
71456;SDS011;59263;48.160;11.752;2024-01-07T04:29:44;11.37;;;4.07;;
71456;SDS011;59263;48.160;11.752;2024-01-07T04:32:09;13.17;;;4.67;;
71456;SDS011;59263;48.160;11.752;2024-01-07T04:34:35;12.00;;;4.37;;
71456;SDS011;59263;48.160;11.752;2024-01-07T04:37:00;12.07;;;4.87;;
71456;SDS011;59263;48.160;11.752;2024-01-07T04:39:25;12.60;;;4.10;;
71456;SDS011;59263;48.160;11.752;2024-01-07T04:41:51;11.95;;;4.47;;
71456;SDS011;59263;48.160;11.752;2024-01-07T04:44:17;12.10;;;4.70;;
71456;SDS011;59263;48.160;11.752;2024-01-07T04:46:42;13.57;;;4.90;;
71456;SDS011;59263;48.160;11.752;2024-01-07T04:49:07;12.25;;;4.22;;
71456;SDS011;59263;48.160;11.752;2024-01-07T04:51:33;11.45;;;4.57;;
71456;SDS011;59263;48.160;11.752;2024-01-07T04:53:58;13.13;;;4.63;;
71456;SDS011;59263;48.160;11.752;2024-01-07T04:56:24;13.17;;;4.80;;
71456;SDS011;59263;48.160;11.752;2024-01-07T04:58:49;13.17;;;4.43;;
71456;SDS011;59263;48.160;11.752;2024-01-07T05:01:15;13.45;;;4.93;;
71456;SDS011;59263;48.160;11.752;2024-01-07T05:03:40;14.90;;;5.07;;
71456;SDS011;59263;48.160;11.752;2024-01-07T05:06:08;12.37;;;4.47;;
71456;SDS011;59263;48.160;11.752;2024-01-07T05:08:34;13.88;;;5.13;;
71456;SDS011;59263;48.160;11.752;2024-01-07T05:10:59;14.27;;;5.07;;
71456;SDS011;59263;48.160;11.752;2024-01-07T05:13:24;15.13;;;4.93;;
71456;SDS011;59263;48.160;11.752;2024-01-07T05:15:50;13.90;;;4.60;;
71456;SDS011;59263;48.160;11.752;2024-01-07T05:18:21;13.45;;;4.70;;
71456;SDS011;59263;48.160;11.752;2024-01-07T05:20:48;11.13;;;4.07;;
71456;SDS011;59263;48.160;11.752;2024-01-07T05:23:14;13.50;;;4.50;;
71456;SDS011;59263;48.160;11.752;2024-01-07T05:25:39;13.60;;;4.32;;
71456;SDS011;59263;48.160;11.752;2024-01-07T05:28:05;11.23;;;4.23;;
71456;SDS011;59263;48.160;11.752;2024-01-07T05:30:31;12.90;;;5.00;;
71456;SDS011;59263;48.160;11.752;2024-01-07T05:32:56;12.53;;;4.63;;
71456;SDS011;59263;48.160;11.752;2024-01-07T05:35:22;12.87;;;4.47;;
71456;SDS011;59263;48.160;11.752;2024-01-07T05:37:47;13.10;;;4.43;;
71456;SDS011;59263;48.160;11.752;2024-01-07T05:40:12;13.80;;;4.35;;
71456;SDS011;59263;48.160;11.752;2024-01-07T05:42:38;14.45;;;4.65;;
71456;SDS011;59263;48.160;11.752;2024-01-07T05:45:03;13.70;;;4.63;;
71456;SDS011;59263;48.160;11.752;2024-01-07T05:47:29;13.13;;;4.57;;
71456;SDS011;59263;48.160;11.752;2024-01-07T05:49:55;14.10;;;4.95;;
71456;SDS011;59263;48.160;11.752;2024-01-07T05:52:20;13.77;;;4.88;;
71456;SDS011;59263;48.160;11.752;2024-01-07T05:54:46;12.17;;;3.93;;
71456;SDS011;59263;48.160;11.752;2024-01-07T05:57:11;14.40;;;4.90;;
71456;SDS011;59263;48.160;11.752;2024-01-07T05:59:37;12.43;;;4.13;;
71456;SDS011;59263;48.160;11.752;2024-01-07T06:02:02;12.23;;;4.65;;
71456;SDS011;59263;48.160;11.752;2024-01-07T06:04:28;12.37;;;4.27;;
71456;SDS011;59263;48.160;11.752;2024-01-07T06:06:53;13.03;;;4.73;;
71456;SDS011;59263;48.160;11.752;2024-01-07T06:09:19;13.10;;;4.23;;
71456;SDS011;59263;48.160;11.752;2024-01-07T06:11:44;12.15;;;4.70;;
71456;SDS011;59263;48.160;11.752;2024-01-07T06:14:09;11.95;;;4.63;;
71456;SDS011;59263;48.160;11.752;2024-01-07T06:16:35;12.17;;;4.70;;
71456;SDS011;59263;48.160;11.752;2024-01-07T06:19:00;11.63;;;4.53;;
71456;SDS011;59263;48.160;11.752;2024-01-07T06:21:25;12.40;;;4.83;;
71456;SDS011;59263;48.160;11.752;2024-01-07T06:23:51;11.75;;;4.63;;
71456;SDS011;59263;48.160;11.752;2024-01-07T06:26:17;11.10;;;4.40;;
71456;SDS011;59263;48.160;11.752;2024-01-07T06:28:42;11.37;;;4.37;;
71456;SDS011;59263;48.160;11.752;2024-01-07T06:31:07;11.43;;;3.90;;
71456;SDS011;59263;48.160;11.752;2024-01-07T06:33:33;11.03;;;4.07;;
71456;SDS011;59263;48.160;11.752;2024-01-07T06:35:58;12.57;;;4.60;;
71456;SDS011;59263;48.160;11.752;2024-01-07T06:38:25;11.98;;;5.13;;
71456;SDS011;59263;48.160;11.752;2024-01-07T06:40:50;11.80;;;4.18;;
71456;SDS011;59263;48.160;11.752;2024-01-07T06:43:16;11.98;;;3.55;;
71456;SDS011;59263;48.160;11.752;2024-01-07T06:45:41;11.37;;;3.97;;
71456;SDS011;59263;48.160;11.752;2024-01-07T06:48:08;12.23;;;4.55;;
71456;SDS011;59263;48.160;11.752;2024-01-07T06:50:34;12.13;;;4.67;;
71456;SDS011;59263;48.160;11.752;2024-01-07T06:52:59;12.77;;;4.57;;
71456;SDS011;59263;48.160;11.752;2024-01-07T06:55:25;12.20;;;4.35;;
71456;SDS011;59263;48.160;11.752;2024-01-07T06:57:50;12.37;;;4.10;;
71456;SDS011;59263;48.160;11.752;2024-01-07T07:00:16;9.77;;;3.40;;
71456;SDS011;59263;48.160;11.752;2024-01-07T07:02:42;11.05;;;3.80;;
71456;SDS011;59263;48.160;11.752;2024-01-07T07:05:08;10.73;;;4.00;;
71456;SDS011;59263;48.160;11.752;2024-01-07T07:07:34;10.00;;;3.47;;
71456;SDS011;59263;48.160;11.752;2024-01-07T07:09:59;11.33;;;3.97;;
71456;SDS011;59263;48.160;11.752;2024-01-07T07:12:24;11.90;;;4.27;;
71456;SDS011;59263;48.160;11.752;2024-01-07T07:14:50;11.20;;;4.33;;
71456;SDS011;59263;48.160;11.752;2024-01-07T07:17:15;10.60;;;3.37;;
71456;SDS011;59263;48.160;11.752;2024-01-07T07:19:40;11.18;;;3.60;;
71456;SDS011;59263;48.160;11.752;2024-01-07T07:22:06;12.43;;;4.10;;
71456;SDS011;59263;48.160;11.752;2024-01-07T07:24:31;14.03;;;4.03;;
71456;SDS011;59263;48.160;11.752;2024-01-07T07:26:56;11.50;;;3.83;;
71456;SDS011;59263;48.160;11.752;2024-01-07T07:29:22;12.40;;;3.90;;
71456;SDS011;59263;48.160;11.752;2024-01-07T07:31:47;11.67;;;3.97;;
71456;SDS011;59263;48.160;11.752;2024-01-07T07:34:12;13.23;;;3.97;;
71456;SDS011;59263;48.160;11.752;2024-01-07T07:36:38;11.00;;;3.60;;
71456;SDS011;59263;48.160;11.752;2024-01-07T07:39:05;11.90;;;4.28;;
71456;SDS011;59263;48.160;11.752;2024-01-07T07:41:31;13.10;;;4.57;;
71456;SDS011;59263;48.160;11.752;2024-01-07T07:43:56;13.48;;;4.10;;
71456;SDS011;59263;48.160;11.752;2024-01-07T07:46:22;11.93;;;4.13;;
71456;SDS011;59263;48.160;11.752;2024-01-07T07:48:47;11.30;;;3.73;;
71456;SDS011;59263;48.160;11.752;2024-01-07T07:51:13;13.85;;;4.72;;
71456;SDS011;59263;48.160;11.752;2024-01-07T07:53:39;12.40;;;4.77;;
71456;SDS011;59263;48.160;11.752;2024-01-07T07:56:07;11.15;;;4.15;;
71456;SDS011;59263;48.160;11.752;2024-01-07T07:58:36;12.20;;;3.97;;
71456;SDS011;59263;48.160;11.752;2024-01-07T08:01:06;14.87;;;6.10;;
71456;SDS011;59263;48.160;11.752;2024-01-07T08:03:31;17.30;;;7.85;;
71456;SDS011;59263;48.160;11.752;2024-01-07T08:05:57;17.85;;;9.95;;
71456;SDS011;59263;48.160;11.752;2024-01-07T08:08:23;12.63;;;5.17;;
71456;SDS011;59263;48.160;11.752;2024-01-07T08:10:48;15.13;;;5.23;;
71456;SDS011;59263;48.160;11.752;2024-01-07T08:13:13;13.17;;;5.73;;
71456;SDS011;59263;48.160;11.752;2024-01-07T08:15:39;16.30;;;6.53;;
71456;SDS011;59263;48.160;11.752;2024-01-07T08:18:04;13.07;;;4.30;;
71456;SDS011;59263;48.160;11.752;2024-01-07T08:20:30;14.77;;;5.37;;
71456;SDS011;59263;48.160;11.752;2024-01-07T08:22:55;12.98;;;5.13;;
71456;SDS011;59263;48.160;11.752;2024-01-07T08:25:21;14.20;;;5.20;;
71456;SDS011;59263;48.160;11.752;2024-01-07T08:27:47;14.73;;;5.17;;
71456;SDS011;59263;48.160;11.752;2024-01-07T08:30:13;12.93;;;4.80;;
71456;SDS011;59263;48.160;11.752;2024-01-07T08:32:38;16.83;;;4.97;;
71456;SDS011;59263;48.160;11.752;2024-01-07T08:35:05;14.68;;;4.97;;
71456;SDS011;59263;48.160;11.752;2024-01-07T08:37:30;12.40;;;4.43;;
71456;SDS011;59263;48.160;11.752;2024-01-07T08:39:56;13.70;;;4.63;;
71456;SDS011;59263;48.160;11.752;2024-01-07T08:42:21;14.60;;;5.20;;
71456;SDS011;59263;48.160;11.752;2024-01-07T08:44:47;13.93;;;4.87;;
71456;SDS011;59263;48.160;11.752;2024-01-07T08:47:12;16.67;;;5.30;;
71456;SDS011;59263;48.160;11.752;2024-01-07T08:49:38;17.05;;;5.32;;
71456;SDS011;59263;48.160;11.752;2024-01-07T08:52:04;13.20;;;4.67;;
71456;SDS011;59263;48.160;11.752;2024-01-07T08:54:35;14.90;;;5.63;;
71456;SDS011;59263;48.160;11.752;2024-01-07T08:57:01;11.80;;;4.20;;
71456;SDS011;59263;48.160;11.752;2024-01-07T08:59:26;14.03;;;4.80;;
71456;SDS011;59263;48.160;11.752;2024-01-07T09:01:51;15.03;;;4.73;;
71456;SDS011;59263;48.160;11.752;2024-01-07T09:04:16;12.13;;;4.40;;
71456;SDS011;59263;48.160;11.752;2024-01-07T09:06:43;16.65;;;4.82;;
71456;SDS011;59263;48.160;11.752;2024-01-07T09:09:08;15.30;;;5.40;;
71456;SDS011;59263;48.160;11.752;2024-01-07T09:11:34;15.30;;;5.70;;
71456;SDS011;59263;48.160;11.752;2024-01-07T09:14:00;16.10;;;5.05;;
71456;SDS011;59263;48.160;11.752;2024-01-07T09:16:26;16.60;;;5.63;;
71456;SDS011;59263;48.160;11.752;2024-01-07T09:18:51;12.93;;;5.22;;
71456;SDS011;59263;48.160;11.752;2024-01-07T09:21:17;15.30;;;5.10;;
71456;SDS011;59263;48.160;11.752;2024-01-07T09:23:43;16.67;;;5.43;;
71456;SDS011;59263;48.160;11.752;2024-01-07T09:26:09;15.48;;;6.07;;
71456;SDS011;59263;48.160;11.752;2024-01-07T09:28:34;16.93;;;6.17;;
71456;SDS011;59263;48.160;11.752;2024-01-07T09:31:00;19.37;;;6.50;;
71456;SDS011;59263;48.160;11.752;2024-01-07T09:33:25;15.33;;;5.53;;
71456;SDS011;59263;48.160;11.752;2024-01-07T09:35:50;17.23;;;5.17;;
71456;SDS011;59263;48.160;11.752;2024-01-07T09:38:16;15.88;;;5.65;;
71456;SDS011;59263;48.160;11.752;2024-01-07T09:40:41;17.92;;;5.43;;
71456;SDS011;59263;48.160;11.752;2024-01-07T09:43:07;18.53;;;5.60;;
71456;SDS011;59263;48.160;11.752;2024-01-07T09:45:33;13.82;;;5.47;;
71456;SDS011;59263;48.160;11.752;2024-01-07T09:48:01;17.23;;;5.85;;
71456;SDS011;59263;48.160;11.752;2024-01-07T09:50:27;16.70;;;5.60;;
71456;SDS011;59263;48.160;11.752;2024-01-07T09:52:53;16.37;;;4.80;;
71456;SDS011;59263;48.160;11.752;2024-01-07T09:55:26;13.43;;;4.65;;
71456;SDS011;59263;48.160;11.752;2024-01-07T09:57:54;15.20;;;4.60;;
71456;SDS011;59263;48.160;11.752;2024-01-07T10:00:20;12.50;;;4.65;;
71456;SDS011;59263;48.160;11.752;2024-01-07T10:02:45;17.15;;;4.63;;
71456;SDS011;59263;48.160;11.752;2024-01-07T10:05:10;14.00;;;4.33;;
71456;SDS011;59263;48.160;11.752;2024-01-07T10:07:36;15.47;;;4.67;;
71456;SDS011;59263;48.160;11.752;2024-01-07T10:10:14;12.23;;;4.43;;
71456;SDS011;59263;48.160;11.752;2024-01-07T10:12:40;16.20;;;4.88;;
71456;SDS011;59263;48.160;11.752;2024-01-07T10:15:06;14.90;;;5.90;;
71456;SDS011;59263;48.160;11.752;2024-01-07T10:17:32;14.52;;;5.22;;
71456;SDS011;59263;48.160;11.752;2024-01-07T10:19:58;12.77;;;4.73;;
71456;SDS011;59263;48.160;11.752;2024-01-07T10:22:23;14.00;;;4.60;;
71456;SDS011;59263;48.160;11.752;2024-01-07T10:24:51;16.88;;;5.00;;
71456;SDS011;59263;48.160;11.752;2024-01-07T10:27:16;16.00;;;4.32;;
71456;SDS011;59263;48.160;11.752;2024-01-07T10:29:42;10.43;;;4.35;;
71456;SDS011;59263;48.160;11.752;2024-01-07T10:32:08;14.00;;;4.55;;
71456;SDS011;59263;48.160;11.752;2024-01-07T10:34:34;15.13;;;4.67;;
71456;SDS011;59263;48.160;11.752;2024-01-07T10:37:01;13.18;;;4.57;;
71456;SDS011;59263;48.160;11.752;2024-01-07T10:39:29;11.88;;;4.57;;
71456;SDS011;59263;48.160;11.752;2024-01-07T10:41:55;13.57;;;4.70;;
71456;SDS011;59263;48.160;11.752;2024-01-07T10:44:28;13.93;;;4.80;;
71456;SDS011;59263;48.160;11.752;2024-01-07T10:46:55;12.07;;;4.10;;
71456;SDS011;59263;48.160;11.752;2024-01-07T10:49:22;11.85;;;3.80;;
71456;SDS011;59263;48.160;11.752;2024-01-07T10:52:04;15.30;;;4.97;;
71456;SDS011;59263;48.160;11.752;2024-01-07T10:54:31;12.77;;;4.00;;
71456;SDS011;59263;48.160;11.752;2024-01-07T10:57:09;12.57;;;4.30;;
71456;SDS011;59263;48.160;11.752;2024-01-07T10:59:43;11.52;;;4.15;;
71456;SDS011;59263;48.160;11.752;2024-01-07T11:02:10;13.05;;;4.68;;
71456;SDS011;59263;48.160;11.752;2024-01-07T11:07:43;13.68;;;4.57;;
71456;SDS011;59263;48.160;11.752;2024-01-07T11:10:16;13.05;;;5.25;;
71456;SDS011;59263;48.160;11.752;2024-01-07T11:12:43;12.00;;;5.00;;
71456;SDS011;59263;48.160;11.752;2024-01-07T11:15:08;14.53;;;5.30;;
71456;SDS011;59263;48.160;11.752;2024-01-07T11:20:12;12.80;;;5.05;;
71456;SDS011;59263;48.160;11.752;2024-01-07T11:22:42;12.73;;;5.00;;
71456;SDS011;59263;48.160;11.752;2024-01-07T11:27:58;14.77;;;4.97;;
71456;SDS011;59263;48.160;11.752;2024-01-07T11:30:26;14.77;;;4.60;;
71456;SDS011;59263;48.160;11.752;2024-01-07T11:32:58;15.10;;;4.97;;
71456;SDS011;59263;48.160;11.752;2024-01-07T11:35:53;14.77;;;4.43;;
71456;SDS011;59263;48.160;11.752;2024-01-07T11:38:22;11.88;;;4.60;;
71456;SDS011;59263;48.160;11.752;2024-01-07T11:40:48;13.33;;;5.00;;
71456;SDS011;59263;48.160;11.752;2024-01-07T11:43:14;13.27;;;4.70;;
71456;SDS011;59263;48.160;11.752;2024-01-07T11:45:40;13.87;;;5.50;;
71456;SDS011;59263;48.160;11.752;2024-01-07T11:48:05;15.23;;;5.40;;
71456;SDS011;59263;48.160;11.752;2024-01-07T11:50:31;12.27;;;4.85;;
71456;SDS011;59263;48.160;11.752;2024-01-07T11:52:56;14.20;;;4.57;;
71456;SDS011;59263;48.160;11.752;2024-01-07T11:55:22;14.87;;;5.40;;
71456;SDS011;59263;48.160;11.752;2024-01-07T11:57:48;13.93;;;4.78;;
71456;SDS011;59263;48.160;11.752;2024-01-07T12:00:13;12.57;;;4.60;;
71456;SDS011;59263;48.160;11.752;2024-01-07T12:02:39;15.70;;;4.60;;
71456;SDS011;59263;48.160;11.752;2024-01-07T12:05:05;14.53;;;4.80;;
71456;SDS011;59263;48.160;11.752;2024-01-07T12:07:30;14.80;;;5.00;;
71456;SDS011;59263;48.160;11.752;2024-01-07T12:09:56;11.20;;;4.57;;
71456;SDS011;59263;48.160;11.752;2024-01-07T12:12:23;16.17;;;5.97;;
71456;SDS011;59263;48.160;11.752;2024-01-07T12:14:48;13.20;;;5.22;;
71456;SDS011;59263;48.160;11.752;2024-01-07T12:17:16;15.40;;;5.73;;
71456;SDS011;59263;48.160;11.752;2024-01-07T12:19:42;15.48;;;5.30;;
71456;SDS011;59263;48.160;11.752;2024-01-07T12:22:08;14.40;;;5.50;;
71456;SDS011;59263;48.160;11.752;2024-01-07T12:24:34;13.80;;;5.57;;
71456;SDS011;59263;48.160;11.752;2024-01-07T12:27:03;12.47;;;4.80;;
71456;SDS011;59263;48.160;11.752;2024-01-07T12:29:32;12.35;;;4.43;;
71456;SDS011;59263;48.160;11.752;2024-01-07T12:31:57;13.05;;;4.53;;
71456;SDS011;59263;48.160;11.752;2024-01-07T12:34:24;12.40;;;4.20;;
71456;SDS011;59263;48.160;11.752;2024-01-07T12:36:50;12.93;;;5.10;;
71456;SDS011;59263;48.160;11.752;2024-01-07T12:39:16;12.23;;;4.33;;
71456;SDS011;59263;48.160;11.752;2024-01-07T12:41:41;14.23;;;5.03;;
71456;SDS011;59263;48.160;11.752;2024-01-07T12:44:07;14.83;;;5.37;;
71456;SDS011;59263;48.160;11.752;2024-01-07T12:46:34;14.10;;;5.53;;
71456;SDS011;59263;48.160;11.752;2024-01-07T12:49:00;15.55;;;4.90;;
71456;SDS011;59263;48.160;11.752;2024-01-07T12:51:25;16.17;;;5.30;;
71456;SDS011;59263;48.160;11.752;2024-01-07T12:53:51;15.25;;;5.50;;
71456;SDS011;59263;48.160;11.752;2024-01-07T12:56:16;15.60;;;6.00;;
71456;SDS011;59263;48.160;11.752;2024-01-07T12:58:41;13.63;;;5.27;;
71456;SDS011;59263;48.160;11.752;2024-01-07T13:01:07;16.27;;;5.43;;
71456;SDS011;59263;48.160;11.752;2024-01-07T13:03:32;14.13;;;4.50;;
71456;SDS011;59263;48.160;11.752;2024-01-07T13:05:57;13.87;;;4.97;;
71456;SDS011;59263;48.160;11.752;2024-01-07T13:08:23;14.20;;;4.88;;
71456;SDS011;59263;48.160;11.752;2024-01-07T13:10:50;13.93;;;5.03;;
71456;SDS011;59263;48.160;11.752;2024-01-07T13:13:16;13.52;;;4.63;;
71456;SDS011;59263;48.160;11.752;2024-01-07T13:15:42;12.93;;;4.70;;
71456;SDS011;59263;48.160;11.752;2024-01-07T13:18:08;12.87;;;4.70;;
71456;SDS011;59263;48.160;11.752;2024-01-07T13:20:34;14.60;;;5.45;;
71456;SDS011;59263;48.160;11.752;2024-01-07T13:23:04;12.98;;;4.53;;
71456;SDS011;59263;48.160;11.752;2024-01-07T13:25:30;14.33;;;5.57;;
71456;SDS011;59263;48.160;11.752;2024-01-07T13:27:55;13.27;;;4.77;;
71456;SDS011;59263;48.160;11.752;2024-01-07T13:30:21;15.05;;;4.97;;
71456;SDS011;59263;48.160;11.752;2024-01-07T13:32:46;12.17;;;4.63;;
71456;SDS011;59263;48.160;11.752;2024-01-07T13:35:11;13.23;;;4.73;;
71456;SDS011;59263;48.160;11.752;2024-01-07T13:37:38;15.15;;;5.22;;
71456;SDS011;59263;48.160;11.752;2024-01-07T13:40:06;12.82;;;4.47;;
71456;SDS011;59263;48.160;11.752;2024-01-07T13:42:35;15.53;;;4.60;;
71456;SDS011;59263;48.160;11.752;2024-01-07T13:45:00;13.50;;;4.85;;
71456;SDS011;59263;48.160;11.752;2024-01-07T13:47:25;11.03;;;4.27;;
71456;SDS011;59263;48.160;11.752;2024-01-07T13:49:51;13.40;;;5.07;;
71456;SDS011;59263;48.160;11.752;2024-01-07T13:52:16;12.23;;;4.27;;
71456;SDS011;59263;48.160;11.752;2024-01-07T13:54:42;13.95;;;5.38;;
71456;SDS011;59263;48.160;11.752;2024-01-07T13:57:07;13.47;;;5.00;;
71456;SDS011;59263;48.160;11.752;2024-01-07T13:59:33;14.43;;;5.43;;
71456;SDS011;59263;48.160;11.752;2024-01-07T14:01:58;12.17;;;4.73;;
71456;SDS011;59263;48.160;11.752;2024-01-07T14:04:24;12.90;;;4.93;;
71456;SDS011;59263;48.160;11.752;2024-01-07T14:06:54;12.03;;;4.23;;
71456;SDS011;59263;48.160;11.752;2024-01-07T14:09:20;14.65;;;5.00;;
71456;SDS011;59263;48.160;11.752;2024-01-07T14:11:46;13.33;;;4.70;;
71456;SDS011;59263;48.160;11.752;2024-01-07T14:14:11;17.93;;;5.03;;
71456;SDS011;59263;48.160;11.752;2024-01-07T14:16:36;15.02;;;4.82;;
71456;SDS011;59263;48.160;11.752;2024-01-07T14:19:02;13.87;;;5.20;;
71456;SDS011;59263;48.160;11.752;2024-01-07T14:21:27;15.60;;;5.23;;
71456;SDS011;59263;48.160;11.752;2024-01-07T14:23:54;12.75;;;4.63;;